Time;durP1;ratioP1;P1;durP2;ratioP2;P2;SDS_P1;SDS_P2;PMS_P1;PMS_P2;Temp;Humidity;BMP_temperature;BMP_pressure;BME280_temperature;BME280_humidity;BME280_pressure;Samples;Min_cycle;Max_cycle;Signal;HPM_P1;HPM_P2
2023/06/15 00:02:03;;;;;;;;;23.67;22.67;;;;;23.60;68.89;101258.75;5019342;28;48556;-81
2023/06/15 00:04:29;;;;;;;;;27.33;24.00;;;;;23.56;69.03;101253.50;5055571;28;45523;-82
2023/06/15 00:06:54;;;;;;;;;22.67;22.67;;;;;23.53;70.05;101251.78;5051187;28;45493;-81
2023/06/15 00:09:20;;;;;;;;;23.00;22.00;;;;;23.49;70.52;101248.34;5056142;28;62265;-81
2023/06/15 00:11:45;;;;;;;;;20.33;20.33;;;;;23.45;71.00;101259.28;5038450;28;47747;-81
2023/06/15 00:14:10;;;;;;;;;22.33;22.33;;;;;23.40;72.18;101259.44;5055533;28;68538;-80
2023/06/15 00:16:41;;;;;;;;;25.67;24.33;;;;;23.37;72.27;101253.28;5056649;28;63442;-81
2023/06/15 00:19:09;;;;;;;;;24.33;23.00;;;;;23.34;72.55;101256.09;5056646;28;45324;-81
2023/06/15 00:21:40;;;;;;;;;22.33;22.00;;;;;23.29;72.66;101260.78;5057269;28;45434;-80
2023/06/15 00:24:09;;;;;;;;;19.67;19.67;;;;;23.25;73.10;101263.56;5034804;28;46267;-80
2023/06/15 00:26:35;;;;;;;;;18.00;18.00;;;;;23.22;73.01;101261.00;5056201;28;45279;-80
2023/06/15 00:29:00;;;;;;;;;23.67;19.33;;;;;23.19;72.31;101260.19;5056305;28;45272;-80
2023/06/15 00:31:25;;;;;;;;;18.00;16.67;;;;;23.17;72.06;101264.75;5055878;28;64725;-80
2023/06/15 00:33:52;;;;;;;;;21.67;17.67;;;;;23.15;72.29;101263.94;5021549;28;50481;-82
2023/06/15 00:36:17;;;;;;;;;20.33;17.00;;;;;23.13;72.23;101266.69;5055716;28;45545;-81
2023/06/15 00:38:43;;;;;;;;;16.00;16.00;;;;;23.11;72.18;101271.22;5056814;28;45438;-81
2023/06/15 00:41:08;;;;;;;;;15.00;14.67;;;;;23.09;72.29;101266.84;5056494;28;45448;-80
2023/06/15 00:43:35;;;;;;;;;19.67;17.00;;;;;23.05;72.34;101274.13;5038540;28;62036;-81
2023/06/15 00:46:01;;;;;;;;;23.67;19.67;;;;;23.02;72.36;101273.38;5055972;28;45582;-80
2023/06/15 00:48:27;;;;;;;;;19.00;17.67;;;;;22.98;72.34;101270.75;5039000;28;45533;-81
2023/06/15 00:50:53;;;;;;;;;18.00;17.67;;;;;22.95;72.54;101268.16;5055951;28;47265;-82
2023/06/15 00:53:18;;;;;;;;;21.00;17.00;;;;;22.93;72.77;101272.72;5037649;28;62094;-81
2023/06/15 00:55:44;;;;;;;;;18.67;15.67;;;;;22.91;73.03;101279.13;5037872;28;62969;-80
2023/06/15 00:58:09;;;;;;;;;18.33;15.67;;;;;22.88;73.09;101274.69;5055452;28;45671;-81
2023/06/15 01:00:37;;;;;;;;;19.00;18.00;;;;;22.85;73.19;101269.41;5038819;28;48946;-82
2023/06/15 01:03:04;;;;;;;;;23.00;19.33;;;;;22.83;73.58;101268.53;5038104;28;47685;-80
2023/06/15 01:05:34;;;;;;;;;16.67;16.67;;;;;22.81;73.73;101267.72;5038166;28;47042;-80
2023/06/15 01:08:02;;;;;;;;;17.33;15.67;;;;;22.78;73.68;101267.81;5056479;28;45498;-80
2023/06/15 01:10:31;;;;;;;;;18.00;16.33;;;;;22.77;74.15;101263.38;5047057;28;46450;-80
2023/06/15 01:13:00;;;;;;;;;16.67;16.67;;;;;22.73;74.64;101267.97;5038136;28;45386;-82
2023/06/15 01:15:26;;;;;;;;;16.00;15.00;;;;;22.71;74.42;101261.75;5038407;28;46071;-82
2023/06/15 01:17:55;;;;;;;;;20.33;18.67;;;;;22.69;74.45;101262.72;5055637;28;45578;-80
2023/06/15 01:20:26;;;;;;;;;14.00;14.00;;;;;22.67;74.84;101264.59;5037761;28;47922;-81
2023/06/15 01:23:18;;;;;;;;;18.33;18.33;;;;;22.65;74.76;101266.47;5037560;28;45516;-81
2023/06/15 01:25:44;;;;;;;;;18.00;17.00;;;;;22.61;75.46;101276.44;5049309;28;45537;-81
2023/06/15 01:28:10;;;;;;;;;15.67;14.00;;;;;22.57;74.89;101268.50;5055062;28;45490;-81
2023/06/15 01:30:41;;;;;;;;;16.00;14.33;;;;;22.54;75.45;101266.81;5037450;28;47770;-81
2023/06/15 01:33:07;;;;;;;;;16.67;15.33;;;;;22.50;75.62;101278.59;5038026;28;45596;-83
2023/06/15 01:35:32;;;;;;;;;16.67;15.00;;;;;22.47;75.91;101271.47;5037476;28;45415;-81
2023/06/15 01:37:57;;;;;;;;;18.33;18.33;;;;;22.44;75.76;101268.91;5055390;28;62573;-80
2023/06/15 01:40:23;;;;;;;;;19.67;16.00;;;;;22.41;76.31;101266.28;5055599;28;46529;-81
2023/06/15 01:42:50;;;;;;;;;16.00;14.00;;;;;22.36;76.83;101273.63;5037921;28;46252;-82
2023/06/15 01:45:16;;;;;;;;;19.00;17.67;;;;;22.34;76.97;101269.22;5034685;28;45315;-81
2023/06/15 01:47:42;;;;;;;;;15.67;15.67;;;;;22.30;77.22;101275.63;5041771;28;45270;-80
2023/06/15 01:50:09;;;;;;;;;17.33;15.00;;;;;22.26;77.54;101274.84;5052581;28;61302;-80
2023/06/15 01:52:35;;;;;;;;;14.33;14.00;;;;;22.21;78.08;101272.31;5055971;28;45403;-80
2023/06/15 01:55:01;;;;;;;;;17.00;16.00;;;;;22.16;78.35;101273.38;5054912;28;45629;-80
2023/06/15 01:57:26;;;;;;;;;20.67;15.33;;;;;22.12;78.58;101279.75;5050250;28;62235;-80
2023/06/15 01:59:54;;;;;;;;;16.33;15.00;;;;;22.07;79.35;101273.59;5048710;28;60845;-81
2023/06/15 02:02:22;;;;;;;;;18.33;16.67;;;;;22.01;79.61;101271.97;5052316;28;45509;-81
2023/06/15 02:04:48;;;;;;;;;17.00;17.00;;;;;21.98;79.96;101275.63;5037232;28;47231;-81
2023/06/15 02:07:14;;;;;;;;;18.33;16.33;;;;;21.95;80.38;101272.16;5055342;28;45489;-81
2023/06/15 02:09:39;;;;;;;;;18.67;17.67;;;;;21.91;80.51;101282.13;5036980;28;45789;-81
2023/06/15 02:12:05;;;;;;;;;21.67;20.00;;;;;21.88;81.34;101284.88;5054900;28;45340;-80
2023/06/15 02:14:31;;;;;;;;;22.00;19.00;;;;;21.85;82.13;101284.97;5036984;28;45303;-80
2023/06/15 02:16:58;;;;;;;;;20.00;18.00;;;;;21.82;82.67;101281.50;5053393;28;46404;-80
2023/06/15 02:19:23;;;;;;;;;20.67;20.33;;;;;21.79;83.59;101279.78;5050746;28;45735;-81
2023/06/15 02:21:49;;;;;;;;;21.67;21.67;;;;;21.77;84.36;101276.25;5050073;28;45489;-82
2023/06/15 02:24:16;;;;;;;;;25.33;19.67;;;;;21.73;85.18;101282.63;5033997;28;45419;-81
2023/06/15 02:26:42;;;;;;;;;24.33;21.67;;;;;21.68;86.40;101273.84;5036862;28;45434;-81
2023/06/15 02:29:07;;;;;;;;;24.67;23.00;;;;;21.66;86.38;101283.72;5053955;28;45852;-82
2023/06/15 02:31:33;;;;;;;;;24.67;23.67;;;;;21.62;87.26;101284.72;5056074;28;61915;-81
2023/06/15 02:33:58;;;;;;;;;27.67;23.33;;;;;21.59;88.60;101272.28;5057920;28;52121;-81
2023/06/15 02:36:24;;;;;;;;;22.67;22.33;;;;;21.56;89.69;101280.41;5058279;28;56381;-81
2023/06/15 02:38:49;;;;;;;;;23.67;21.33;;;;;21.51;89.89;101281.44;5036488;28;47468;-80
2023/06/15 02:41:15;;;;;;;;;30.33;23.67;;;;;21.47;90.09;101274.41;5055233;28;47319;-80
2023/06/15 02:43:40;;;;;;;;;27.67;24.67;;;;;21.44;91.20;101284.31;5059484;28;45753;-81
2023/06/15 02:46:06;;;;;;;;;24.67;23.67;;;;;21.40;92.28;101285.31;5040487;28;45639;-80
2023/06/15 02:48:32;;;;;;;;;24.67;23.67;;;;;21.38;92.80;101284.47;5058004;28;45347;-81
2023/06/15 02:50:58;;;;;;;;;33.67;26.00;;;;;21.34;93.63;101282.78;5056869;28;45373;-81
2023/06/15 02:53:23;;;;;;;;;28.67;24.00;;;;;21.31;94.19;101280.19;5040600;28;45276;-81
2023/06/15 02:55:49;;;;;;;;;23.75;23.75;;;;;21.29;94.90;101282.00;5040213;28;60229;-81
2023/06/15 02:58:14;;;;;;;;;25.33;25.33;;;;;21.27;94.79;101280.28;5058125;28;45537;-79
2023/06/15 03:00:40;;;;;;;;;24.67;23.67;;;;;21.27;95.43;101288.34;5057359;28;67557;-81
2023/06/15 03:03:07;;;;;;;;;29.00;26.00;;;;;21.25;96.43;101290.16;5058427;28;45467;-81
2023/06/15 03:05:32;;;;;;;;;29.67;22.67;;;;;21.22;97.02;101285.78;5058377;28;45509;-81
2023/06/15 03:07:58;;;;;;;;;25.00;24.67;;;;;21.19;97.44;101284.03;5058132;28;47354;-80
2023/06/15 03:10:23;;;;;;;;;26.33;26.33;;;;;21.15;97.73;101290.44;5057431;28;45454;-82
2023/06/15 03:12:49;;;;;;;;;28.00;25.33;;;;;21.13;98.04;101289.56;5058105;28;45515;-81
2023/06/15 03:15:14;;;;;;;;;27.67;24.33;;;;;21.12;98.61;101293.19;5057844;28;56339;-81
2023/06/15 03:17:40;;;;;;;;;26.50;25.50;;;;;21.10;98.69;101291.47;5056985;28;47002;-81
2023/06/15 03:20:10;;;;;;;;;28.00;27.33;;;;;21.08;99.80;101294.16;5058085;28;45385;-80
2023/06/15 03:22:36;;;;;;;;;32.00;29.33;;;;;21.03;99.18;101285.34;5057881;28;45710;-80
2023/06/15 03:25:03;;;;;;;;;25.50;25.00;;;;;21.02;99.66;101288.06;5057154;28;45452;-81
2023/06/15 03:27:29;;;;;;;;;20.75;20.00;;;;;21.00;99.97;101298.84;5056439;28;47612;-80
2023/06/15 03:29:56;;;;;;;;;23.50;22.50;;;;;20.97;100.00;101290.00;5053083;28;45481;-80
2023/06/15 03:32:22;;;;;;;;;28.00;25.33;;;;;20.95;100.00;101292.72;5057866;28;45345;-81
2023/06/15 03:34:47;;;;;;;;;26.00;25.50;;;;;20.92;100.00;101296.34;5056620;28;57981;-81
2023/06/15 03:37:13;;;;;;;;;32.33;27.67;;;;;20.91;100.00;101294.59;5039408;28;45525;-80
2023/06/15 03:39:38;;;;;;;;;28.25;26.00;;;;;20.91;100.00;101299.06;5038775;28;69254;-81
2023/06/15 03:42:04;;;;;;;;;30.50;28.00;;;;;20.90;100.00;101297.31;5039292;28;45498;-80
2023/06/15 03:44:29;;;;;;;;;27.25;27.25;;;;;20.87;100.00;101297.38;5057626;28;45351;-81
2023/06/15 03:46:54;;;;;;;;;32.00;28.00;;;;;20.84;100.00;101298.34;5039242;28;56533;-80
2023/06/15 03:49:20;;;;;;;;;34.50;30.00;;;;;20.81;100.00;101297.53;5057863;28;45458;-80
2023/06/15 03:51:45;;;;;;;;;29.75;26.50;;;;;20.82;100.00;101299.28;5057274;28;45458;-81
2023/06/15 03:54:11;;;;;;;;;31.25;30.00;;;;;20.80;100.00;101310.06;5056982;28;59497;-80
2023/06/15 03:56:36;;;;;;;;;32.00;29.00;;;;;20.76;100.00;101303.00;5039159;28;46646;-80
2023/06/15 03:59:01;;;;;;;;;28.50;26.25;;;;;20.74;100.00;101306.66;5039799;28;45377;-80
2023/06/15 04:01:27;;;;;;;;;26.25;25.50;;;;;20.73;100.00;101300.41;5038550;28;45336;-79
2023/06/15 04:03:53;;;;;;;;;30.00;25.75;;;;;20.69;100.00;101309.44;5056915;28;45479;-80
2023/06/15 04:06:21;;;;;;;;;27.00;26.00;;;;;20.67;100.00;101303.25;5039016;28;47697;-80
2023/06/15 04:08:46;;;;;;;;;25.33;24.33;;;;;20.65;100.00;101305.06;5056918;28;45415;-80
2023/06/15 04:11:12;;;;;;;;;32.50;29.25;;;;;20.63;100.00;101301.53;5039182;28;45443;-80
2023/06/15 04:13:37;;;;;;;;;28.25;26.00;;;;;20.62;100.00;101303.34;5037712;28;45491;-85
2023/06/15 04:16:03;;;;;;;;;34.25;29.50;;;;;20.62;100.00;101307.81;5036198;28;45691;-82
2023/06/15 04:18:28;;;;;;;;;35.00;30.00;;;;;20.60;100.00;101309.66;5036154;28;45777;-83
2023/06/15 04:20:54;;;;;;;;;29.75;26.75;;;;;20.59;100.00;101313.25;5060855;28;45945;-74
2023/06/15 04:23:20;;;;;;;;;29.00;28.33;;;;;20.59;100.00;101307.88;5056013;28;46258;-75
2023/06/15 04:25:45;;;;;;;;;24.67;24.67;;;;;20.59;100.00;101324.88;5036556;28;46642;-77
2023/06/15 04:28:10;;;;;;;;;31.67;25.67;;;;;20.58;100.00;101317.75;5056166;28;45484;-75
2023/06/15 04:30:37;;;;;;;;;29.00;29.00;;;;;20.59;100.00;101319.50;5055786;28;45459;-75
2023/06/15 04:33:04;;;;;;;;;31.75;28.75;;;;;20.59;100.00;101316.81;5054978;28;45231;-73
2023/06/15 04:35:31;;;;;;;;;29.00;29.00;;;;;20.57;100.00;101323.16;5055380;28;46655;-73
2023/06/15 04:38:00;;;;;;;;;31.00;29.75;;;;;20.55;100.00;101327.66;5054580;28;45997;-76
2023/06/15 04:40:26;;;;;;;;;31.25;28.00;;;;;20.54;100.00;101323.19;5055358;28;45431;-75
2023/06/15 04:42:53;;;;;;;;;35.75;28.75;;;;;20.53;100.00;101321.44;5056013;28;45398;-75
2023/06/15 04:45:18;;;;;;;;;28.00;28.00;;;;;20.52;100.00;101325.94;5055818;28;45836;-75
2023/06/15 04:47:44;;;;;;;;;30.25;27.00;;;;;20.51;100.00;101325.97;5056344;28;45648;-77
2023/06/15 04:50:13;;;;;;;;;29.25;28.00;;;;;20.50;100.00;101329.53;5037328;28;45514;-77
2023/06/15 04:52:39;;;;;;;;;26.25;23.50;;;;;20.47;100.00;101327.81;5056185;28;45412;-77
2023/06/15 04:55:05;;;;;;;;;35.50;30.50;;;;;20.50;100.00;101340.28;5054861;28;47642;-76
2023/06/15 04:57:30;;;;;;;;;31.25;30.50;;;;;20.52;100.00;101333.97;5056372;28;45470;-77
2023/06/15 04:59:56;;;;;;;;;30.75;30.50;;;;;20.53;100.00;101338.41;5037774;28;47884;-76
2023/06/15 05:02:21;;;;;;;;;28.50;27.25;;;;;20.54;100.00;101337.50;5054868;28;60699;-75
2023/06/15 05:04:46;;;;;;;;;35.50;30.75;;;;;20.57;100.00;101341.94;5053653;28;45581;-76
2023/06/15 05:07:12;;;;;;;;;30.00;28.25;;;;;20.58;100.00;101339.19;5037526;28;45289;-76
2023/06/15 05:09:37;;;;;;;;;33.75;32.75;;;;;20.60;100.00;101337.34;5055576;28;56308;-76
2023/06/15 05:12:03;;;;;;;;;31.75;30.50;;;;;20.63;100.00;101342.66;5055367;28;52615;-75
2023/06/15 05:14:28;;;;;;;;;30.50;30.25;;;;;20.65;100.00;101343.50;5056294;28;46211;-75
2023/06/15 05:16:53;;;;;;;;;34.75;31.00;;;;;20.70;100.00;101343.41;5052843;28;65623;-75
2023/06/15 05:19:20;;;;;;;;;30.00;24.50;;;;;20.74;100.00;101349.59;5055435;28;45853;-74
2023/06/15 05:21:49;;;;;;;;;33.50;32.00;;;;;20.77;100.00;101346.81;5055705;28;46303;-75
2023/06/15 05:24:14;;;;;;;;;34.50;30.50;;;;;20.79;100.00;101347.69;5055014;28;47547;-73
2023/06/15 05:26:40;;;;;;;;;33.75;30.75;;;;;20.83;100.00;101344.03;5055323;28;45410;-73
2023/06/15 05:29:06;;;;;;;;;39.25;31.75;;;;;20.86;100.00;101347.50;5054271;28;62268;-74
2023/06/15 05:31:32;;;;;;;;;29.75;27.25;;;;;20.88;100.00;101351.06;5055318;28;45356;-73
2023/06/15 05:33:57;;;;;;;;;33.25;31.00;;;;;20.92;100.00;101358.09;5056173;28;45588;-74
2023/06/15 05:36:25;;;;;;;;;37.50;29.50;;;;;20.97;100.00;101354.41;5049992;28;66731;-72
2023/06/15 05:38:51;;;;;;;;;36.75;32.50;;;;;20.98;100.00;101348.13;5056036;28;45557;-74
2023/06/15 05:41:16;;;;;;;;;28.50;25.00;;;;;21.01;100.00;101359.69;5056107;28;45356;-74
2023/06/15 05:43:41;;;;;;;;;31.75;29.50;;;;;21.05;100.00;101360.50;5055718;28;49297;-74
2023/06/15 05:46:07;;;;;;;;;37.25;32.25;;;;;21.08;100.00;101355.03;5036646;28;45501;-74
2023/06/15 05:48:32;;;;;;;;;36.50;32.00;;;;;21.12;100.00;101354.94;5053996;28;45423;-74
2023/06/15 05:50:57;;;;;;;;;35.25;31.00;;;;;21.17;100.00;101365.56;5053435;28;59909;-74
2023/06/15 05:53:23;;;;;;;;;31.75;30.75;;;;;21.21;100.00;101359.22;5054562;28;62985;-75
2023/06/15 05:55:48;;;;;;;;;29.00;29.00;;;;;21.25;100.00;101357.31;5053725;28;63412;-76
2023/06/15 05:58:14;;;;;;;;;36.25;29.75;;;;;21.27;100.00;101371.59;5055094;28;46050;-76
2023/06/15 06:00:39;;;;;;;;;29.00;28.25;;;;;21.30;100.00;101367.06;5053846;28;45618;-74
2023/06/15 06:03:04;;;;;;;;;35.00;28.75;;;;;21.33;100.00;101369.69;5055590;28;50800;-74
2023/06/15 06:05:30;;;;;;;;;28.00;23.50;;;;;21.40;100.00;101368.59;5053268;28;66824;-72
2023/06/15 06:07:55;;;;;;;;;33.00;31.00;;;;;21.45;100.00;101372.03;5053311;28;45607;-74
2023/06/15 06:10:20;;;;;;;;;33.75;31.25;;;;;21.50;100.00;101373.75;5053653;28;45629;-74
2023/06/15 06:12:46;;;;;;;;;33.25;30.00;;;;;21.53;100.00;101376.38;5053523;28;61456;-78
2023/06/15 06:15:11;;;;;;;;;25.33;23.00;;;;;21.56;100.00;101374.47;5036809;28;45446;-78
2023/06/15 06:17:37;;;;;;;;;15.33;12.00;;;;;21.61;100.00;101377.03;5159176;22;47173;-78
2023/06/15 06:20:03;;;;;;;;;16.67;12.33;;;;;21.64;100.00;101374.28;5070627;27;45612;-77
2023/06/15 06:22:29;;;;;;;;;14.33;13.00;;;;;21.66;100.00;101373.31;5075079;27;45931;-75
2023/06/15 06:24:54;;;;;;;;;12.00;10.67;;;;;21.74;100.00;101380.31;5070781;27;45537;-75
2023/06/15 06:27:19;;;;;;;;;14.33;12.67;;;;;21.81;100.00;101376.50;5097388;27;45399;-75
2023/06/15 06:29:45;;;;;;;;;11.33;10.00;;;;;21.89;100.00;101383.47;5061212;27;57770;-76
2023/06/15 06:32:10;;;;;;;;;12.33;12.33;;;;;21.99;100.00;101376.00;5088809;27;71748;-76
2023/06/15 06:34:35;;;;;;;;;10.33;9.00;;;;;22.09;100.00;101387.38;5072406;27;65859;-76
2023/06/15 06:37:04;;;;;;;;;11.67;10.33;;;;;22.18;100.00;101379.97;5109240;27;45903;-76
2023/06/15 06:39:30;;;;;;;;;9.67;9.67;;;;;22.28;100.00;101374.34;5097446;27;45465;-76
2023/06/15 06:41:55;;;;;;;;;10.00;10.00;;;;;22.35;100.00;101387.56;5095533;27;47388;-76
2023/06/15 06:44:21;;;;;;;;;15.00;11.67;;;;;22.44;100.00;101391.81;5101385;27;45405;-77
2023/06/15 06:46:46;;;;;;;;;9.33;9.33;;;;;22.52;100.00;101395.16;5080980;27;45323;-77
2023/06/15 06:49:12;;;;;;;;;9.00;9.00;;;;;22.60;100.00;101387.75;5100013;27;45294;-76
2023/06/15 06:51:38;;;;;;;;;8.67;8.67;;;;;22.68;99.17;101391.06;5095724;27;45985;-76
2023/06/15 06:54:03;;;;;;;;;9.33;9.33;;;;;22.78;97.99;101401.56;5104588;27;45359;-77
2023/06/15 06:56:28;;;;;;;;;9.33;8.33;;;;;22.84;97.01;101394.16;5093026;27;45524;-77
2023/06/15 06:58:54;;;;;;;;;9.00;9.00;;;;;22.91;96.77;101392.22;5093803;27;50081;-77
2023/06/15 07:01:19;;;;;;;;;8.00;8.00;;;;;22.96;95.32;101399.22;5080040;27;45541;-76
2023/06/15 07:03:45;;;;;;;;;9.67;8.33;;;;;23.03;94.52;101399.03;5091072;27;45575;-76
2023/06/15 07:06:11;;;;;;;;;8.33;8.00;;;;;23.08;94.92;101389.00;5088713;27;45530;-76
2023/06/15 07:08:36;;;;;;;;;10.00;8.33;;;;;23.15;94.51;101409.41;5088312;27;59231;-76
2023/06/15 07:11:01;;;;;;;;;10.00;10.00;;;;;23.21;95.00;101409.19;5087835;27;68582;-77
2023/06/15 07:13:27;;;;;;;;;11.00;11.00;;;;;23.27;94.03;101400.91;5089095;27;45423;-77
2023/06/15 07:15:54;;;;;;;;;11.67;11.00;;;;;23.35;94.30;101412.34;5091044;27;45661;-77
2023/06/15 07:18:20;;;;;;;;;12.33;12.00;;;;;23.40;93.74;101412.19;5090171;27;45458;-77
2023/06/15 07:20:45;;;;;;;;;10.67;10.67;;;;;23.45;93.24;101407.53;5077866;27;46470;-76
2023/06/15 07:23:11;;;;;;;;;11.33;10.33;;;;;23.49;93.12;101404.69;5097073;27;62665;-77
2023/06/15 07:25:36;;;;;;;;;13.00;10.33;;;;;23.53;93.27;101403.63;5095427;27;63303;-76
2023/06/15 07:28:02;;;;;;;;;14.33;12.33;;;;;23.58;92.74;101408.88;5097887;27;62657;-76
2023/06/15 07:30:29;;;;;;;;;12.00;12.00;;;;;23.64;92.47;101411.38;5069515;27;46954;-76
2023/06/15 07:32:55;;;;;;;;;12.00;12.00;;;;;23.70;92.24;101418.38;5086972;27;45357;-76
2023/06/15 07:35:20;;;;;;;;;8.67;8.67;;;;;23.74;91.13;101420.06;5096644;27;46227;-76
2023/06/15 07:37:45;;;;;;;;;8.00;8.00;;;;;23.79;90.52;101420.78;5098697;27;59388;-76
2023/06/15 07:40:11;;;;;;;;;9.00;9.00;;;;;23.82;89.80;101420.69;5070394;27;69287;-76
2023/06/15 07:42:36;;;;;;;;;10.00;8.67;;;;;23.86;89.46;101418.75;5098661;27;45196;-76
2023/06/15 07:45:02;;;;;;;;;10.67;9.33;;;;;23.90;89.16;101421.28;5093963;27;45469;-76
2023/06/15 07:47:27;;;;;;;;;13.00;8.67;;;;;23.94;88.80;101417.56;5097073;27;45465;-76
2023/06/15 07:49:53;;;;;;;;;9.00;9.00;;;;;24.00;88.87;101419.16;5076473;27;61670;-76
2023/06/15 07:52:18;;;;;;;;;7.67;7.67;;;;;24.04;86.64;101427.09;5085148;27;65164;-76
2023/06/15 07:54:43;;;;;;;;;10.00;8.00;;;;;24.08;85.98;101421.59;5092748;27;62251;-76
2023/06/15 07:57:09;;;;;;;;;8.67;7.33;;;;;24.13;85.95;101420.50;5087030;27;45624;-76
2023/06/15 07:59:34;;;;;;;;;9.67;7.00;;;;;24.19;86.78;101427.47;5090675;27;65732;-77
2023/06/15 08:02:02;;;;;;;;;9.67;8.00;;;;;24.24;85.82;101420.09;5089448;27;45404;-76
2023/06/15 08:04:28;;;;;;;;;7.33;6.33;;;;;24.31;85.09;101418.94;5092053;27;45413;-76
2023/06/15 08:06:53;;;;;;;;;9.67;8.00;;;;;24.36;84.89;101419.69;5083149;27;45573;-76
2023/06/15 08:09:18;;;;;;;;;7.00;7.00;;;;;24.41;84.24;101420.38;5094632;27;68606;-77
2023/06/15 08:11:44;;;;;;;;;11.00;10.00;;;;;24.44;83.18;101433.75;5095248;27;45525;-76
2023/06/15 08:14:09;;;;;;;;;8.67;8.67;;;;;24.45;82.25;101431.94;5093786;27;45687;-76
2023/06/15 08:16:34;;;;;;;;;9.00;9.00;;;;;24.48;81.48;101423.72;5090182;27;45441;-76
2023/06/15 08:19:00;;;;;;;;;11.33;8.00;;;;;24.50;81.20;101438.94;5089281;27;69616;-76
2023/06/15 08:21:25;;;;;;;;;10.00;9.67;;;;;24.52;80.90;101430.78;5084610;27;59298;-75
2023/06/15 08:23:51;;;;;;;;;8.00;8.00;;;;;24.56;81.97;101435.13;5091404;27;45421;-76
2023/06/15 08:26:16;;;;;;;;;8.00;7.00;;;;;24.62;81.25;101431.31;5088080;27;45492;-76
2023/06/15 08:28:41;;;;;;;;;8.00;8.00;;;;;24.67;80.85;101430.22;5095819;27;46245;-77
2023/06/15 08:31:07;;;;;;;;;14.00;10.00;;;;;24.73;80.69;101429.09;5094210;27;68782;-78
2023/06/15 08:33:33;;;;;;;;;12.00;10.33;;;;;24.78;81.24;101430.69;5095231;27;62786;-77
2023/06/15 08:35:59;;;;;;;;;9.33;8.33;;;;;24.86;81.32;101430.38;5097582;27;45438;-78
2023/06/15 08:38:25;;;;;;;;;9.33;7.00;;;;;24.94;80.62;101430.09;5097503;27;45645;-77
2023/06/15 08:40:50;;;;;;;;;7.67;7.67;;;;;24.99;80.69;101439.78;5097049;27;45390;-78
2023/06/15 08:43:16;;;;;;;;;8.00;6.00;;;;;25.07;80.16;101434.06;5096468;27;64046;-79
2023/06/15 08:45:43;;;;;;;;;10.00;7.33;;;;;25.14;79.25;101432.00;5097293;27;45605;-78
2023/06/15 08:48:14;;;;;;;;;6.33;6.33;;;;;25.21;78.97;101433.53;5077292;27;45549;-78
2023/06/15 08:50:40;;;;;;;;;7.67;7.00;;;;;25.26;78.67;101426.13;5097051;27;46117;-79
2023/06/15 08:53:06;;;;;;;;;7.00;7.00;;;;;25.34;79.03;101432.09;5097567;27;61266;-78
2023/06/15 08:55:33;;;;;;;;;8.00;8.00;;;;;25.41;76.86;101425.50;5078858;27;45541;-78
2023/06/15 08:57:59;;;;;;;;;7.00;7.00;;;;;25.48;76.63;101429.69;5079496;27;46683;-78
2023/06/15 09:00:25;;;;;;;;;10.00;8.00;;;;;25.55;75.26;101420.38;5078707;27;45351;-77
2023/06/15 09:02:52;;;;;;;;;8.67;7.33;;;;;25.64;74.63;101426.34;5076438;27;45366;-77
2023/06/15 09:05:18;;;;;;;;;8.33;7.33;;;;;25.70;74.78;101431.50;5068689;27;45580;-78
2023/06/15 09:07:43;;;;;;;;;6.33;6.33;;;;;25.77;75.53;101428.50;5077483;27;69057;-78
2023/06/15 09:10:08;;;;;;;;;8.00;8.00;;;;;25.82;75.79;101433.72;5090359;27;65944;-81
2023/06/15 09:12:33;;;;;;;;;8.67;7.00;;;;;25.86;75.72;101428.09;5091290;27;45460;-79
2023/06/15 09:14:59;;;;;;;;;7.67;7.67;;;;;25.91;75.50;101425.22;5092762;27;58140;-79
2023/06/15 09:17:27;;;;;;;;;10.00;8.33;;;;;25.93;75.15;101422.44;5091050;27;46013;-79
2023/06/15 09:19:53;;;;;;;;;6.33;6.33;;;;;25.96;75.54;101427.72;5066975;27;45520;-79
2023/06/15 09:22:18;;;;;;;;;7.00;7.00;;;;;25.97;74.24;101430.34;5069294;28;66643;-78
2023/06/15 09:24:45;;;;;;;;;9.00;8.33;;;;;26.02;74.94;101425.63;5072903;27;45540;-79
2023/06/15 09:27:17;;;;;;;;;10.67;9.00;;;;;26.07;75.22;101423.59;5069604;28;46761;-80
2023/06/15 09:30:06;;;;;;;;;9.33;9.00;;;;;26.13;72.57;101425.13;5067093;27;46449;-78
2023/06/15 09:32:31;;;;;;;;;8.67;7.33;;;;;26.20;72.16;101425.75;5066044;27;45400;-80
2023/06/15 09:35:00;;;;;;;;;7.00;7.00;;;;;26.30;71.66;101421.66;5071920;27;63803;-80
2023/06/15 09:37:27;;;;;;;;;4.33;4.33;;;;;26.42;72.44;101431.09;5073515;27;45378;-80
2023/06/15 09:39:53;;;;;;;;;8.00;8.00;;;;;26.52;72.06;101429.72;5053899;27;46300;-81
2023/06/15 09:42:23;;;;;;;;;9.67;8.00;;;;;26.63;70.42;101430.09;5073323;27;45542;-81
2023/06/15 09:44:53;;;;;;;;;10.67;7.00;;;;;26.71;70.09;101433.34;5069981;27;45500;-80
2023/06/15 09:47:19;;;;;;;;;10.33;7.33;;;;;26.81;70.53;101426.56;5068778;28;46447;-80
2023/06/15 09:49:44;;;;;;;;;7.00;7.00;;;;;26.92;69.22;101420.63;5072228;27;45438;-80
2023/06/15 09:52:13;;;;;;;;;6.00;6.00;;;;;27.02;68.47;101424.66;5067095;28;63054;-78
2023/06/15 09:54:39;;;;;;;;;6.00;6.00;;;;;27.11;67.61;101416.13;5068280;27;45433;-79
2023/06/15 09:57:04;;;;;;;;;6.33;6.33;;;;;27.22;67.51;101426.44;5068501;27;45612;-77
2023/06/15 09:59:30;;;;;;;;;7.67;7.00;;;;;27.30;67.32;101418.78;5075026;27;45302;-78
2023/06/15 10:01:56;;;;;;;;;9.00;9.00;;;;;27.36;66.70;101417.59;5075783;28;45288;-78
2023/06/15 10:04:25;;;;;;;;;10.67;8.00;;;;;27.41;66.18;101412.81;5067771;27;45627;-79
2023/06/15 10:06:55;;;;;;;;;10.00;8.00;;;;;27.44;66.51;101417.22;5072862;28;46389;-78
2023/06/15 10:09:29;;;;;;;;;10.00;8.67;;;;;27.44;65.88;101420.81;5071371;28;45609;-77
2023/06/15 10:12:07;;;;;;;;;11.33;8.67;;;;;27.44;65.62;101422.66;5069683;28;45474;-79
2023/06/15 10:14:39;;;;;;;;;9.67;8.67;;;;;27.47;65.05;101431.50;5071445;28;45500;-78
2023/06/15 10:17:05;;;;;;;;;13.00;8.67;;;;;27.52;65.23;101423.13;5069617;28;46763;-78
2023/06/15 10:19:32;;;;;;;;;9.67;8.67;;;;;27.58;64.80;101418.28;5085980;27;45490;-81
2023/06/15 10:21:58;;;;;;;;;8.00;8.00;;;;;27.61;64.12;101419.97;5076626;27;45374;-79
2023/06/15 10:24:25;;;;;;;;;8.67;8.67;;;;;27.67;63.22;101420.53;5061515;27;45459;-76
2023/06/15 10:26:50;;;;;;;;;8.33;8.33;;;;;27.73;62.93;101419.38;5085922;27;46581;-78
2023/06/15 10:29:23;;;;;;;;;7.33;7.33;;;;;27.81;61.89;101421.69;5087106;27;45646;-81
2023/06/15 10:32:09;;;;;;;;;10.67;8.00;;;;;27.88;62.18;101418.56;5069295;27;45428;-77
2023/06/15 10:34:41;;;;;;;;;7.67;7.67;;;;;28.00;60.82;101427.91;5091234;27;45337;-77
2023/06/15 10:37:25;;;;;;;;;8.00;8.00;;;;;28.07;60.03;101423.03;5073874;27;45377;-79
2023/06/15 10:39:52;;;;;;;;;11.67;8.33;;;;;28.10;59.07;101417.44;5070764;27;45546;-81
2023/06/15 10:42:17;;;;;;;;;11.67;8.67;;;;;28.17;58.36;101424.31;5070700;27;45317;-77
2023/06/15 10:44:42;;;;;;;;;8.33;8.33;;;;;28.25;56.64;101416.63;5075032;27;61092;-76
2023/06/15 10:47:12;;;;;;;;;10.00;8.67;;;;;28.33;55.88;101414.41;5094645;27;45757;-78
2023/06/15 10:49:52;;;;;;;;;8.33;8.33;;;;;28.42;55.73;101416.63;5093225;27;45645;-77
2023/06/15 10:52:18;;;;;;;;;11.33;9.67;;;;;28.49;56.13;101414.44;5090632;27;45470;-77
2023/06/15 10:54:44;;;;;;;;;8.33;8.33;;;;;28.61;56.72;101421.94;5092913;27;45432;-77
2023/06/15 10:57:14;;;;;;;;;11.00;11.00;;;;;28.74;57.28;101430.28;5089880;27;45629;-78
2023/06/15 10:59:41;;;;;;;;;10.33;10.33;;;;;28.85;56.62;101416.97;5088274;27;45675;-78
2023/06/15 11:02:36;;;;;;;;;11.33;10.67;;;;;28.98;56.61;101419.94;5098855;27;45390;-78
2023/06/15 11:05:02;;;;;;;;;10.67;10.33;;;;;29.06;56.27;101417.63;5077714;27;45362;-78
2023/06/15 11:07:28;;;;;;;;;13.67;13.67;;;;;29.09;55.60;101414.75;5088580;27;45833;-78
2023/06/15 11:09:57;;;;;;;;;9.33;9.33;;;;;29.16;55.82;101418.00;5062863;27;45842;-77